sensor_id;sensor_type;location;lat;lon;timestamp;P1;durP1;ratioP1;P2;durP2;ratioP2
2884;SDS011;54691;48.262;11.586;2022-12-24T00:00:31;0.80;;;0.47;;
2884;SDS011;54691;48.262;11.586;2022-12-24T00:07:29;1.55;;;0.70;;
2884;SDS011;54691;48.262;11.586;2022-12-24T00:14:26;2.92;;;0.40;;
2884;SDS011;54691;48.262;11.586;2022-12-24T00:21:23;1.47;;;0.50;;
2884;SDS011;54691;48.262;11.586;2022-12-24T00:31:59;5.20;;;1.77;;
2884;SDS011;54691;48.262;11.586;2022-12-24T00:42:37;2.25;;;0.80;;
2884;SDS011;54691;48.262;11.586;2022-12-24T00:49:34;1.57;;;0.90;;
2884;SDS011;54691;48.262;11.586;2022-12-24T00:56:31;2.80;;;0.70;;
2884;SDS011;54691;48.262;11.586;2022-12-24T01:03:29;2.42;;;0.82;;
2884;SDS011;54691;48.262;11.586;2022-12-24T01:14:00;2.98;;;1.00;;
2884;SDS011;54691;48.262;11.586;2022-12-24T01:20:58;1.20;;;0.57;;
2884;SDS011;54691;48.262;11.586;2022-12-24T01:27:55;3.62;;;0.60;;
2884;SDS011;54691;48.262;11.586;2022-12-24T01:34:54;1.85;;;0.90;;
2884;SDS011;54691;48.262;11.586;2022-12-24T01:41:51;2.25;;;0.70;;
2884;SDS011;54691;48.262;11.586;2022-12-24T01:45:48;1.92;;;1.20;;
2884;SDS011;54691;48.262;11.586;2022-12-24T01:49:18;1.60;;;0.65;;
2884;SDS011;54691;48.262;11.586;2022-12-24T01:56:15;3.58;;;0.70;;
2884;SDS011;54691;48.262;11.586;2022-12-24T02:03:14;1.52;;;0.60;;
2884;SDS011;54691;48.262;11.586;2022-12-24T02:10:11;1.55;;;0.72;;
2884;SDS011;54691;48.262;11.586;2022-12-24T02:31:43;1.85;;;1.02;;
2884;SDS011;54691;48.262;11.586;2022-12-24T02:42:34;1.65;;;0.60;;
2884;SDS011;54691;48.262;11.586;2022-12-24T02:49:29;5.42;;;0.80;;
2884;SDS011;54691;48.262;11.586;2022-12-24T02:56:48;4.47;;;0.78;;
2884;SDS011;54691;48.262;11.586;2022-12-24T03:00:20;3.92;;;0.70;;
2884;SDS011;54691;48.262;11.586;2022-12-24T03:07:21;2.45;;;0.72;;
2884;SDS011;54691;48.262;11.586;2022-12-24T03:10:55;3.20;;;0.90;;
2884;SDS011;54691;48.262;11.586;2022-12-24T03:17:54;7.35;;;1.37;;
2884;SDS011;54691;48.262;11.586;2022-12-24T03:24:51;2.00;;;0.65;;
2884;SDS011;54691;48.262;11.586;2022-12-24T03:31:50;4.92;;;0.80;;
2884;SDS011;54691;48.262;11.586;2022-12-24T03:38:47;1.85;;;0.70;;
2884;SDS011;54691;48.262;11.586;2022-12-24T03:45:44;1.98;;;0.95;;
2884;SDS011;54691;48.262;11.586;2022-12-24T03:52:41;1.98;;;0.57;;
2884;SDS011;54691;48.262;11.586;2022-12-24T03:59:38;2.22;;;0.78;;
2884;SDS011;54691;48.262;11.586;2022-12-24T04:06:35;0.98;;;0.50;;
2884;SDS011;54691;48.262;11.586;2022-12-24T04:13:32;6.50;;;1.00;;
2884;SDS011;54691;48.262;11.586;2022-12-24T04:20:29;2.45;;;0.50;;
2884;SDS011;54691;48.262;11.586;2022-12-24T04:27:26;2.15;;;0.60;;
2884;SDS011;54691;48.262;11.586;2022-12-24T04:34:23;2.90;;;0.75;;
2884;SDS011;54691;48.262;11.586;2022-12-24T04:41:21;1.40;;;0.98;;
2884;SDS011;54691;48.262;11.586;2022-12-24T04:48:18;2.65;;;0.42;;
2884;SDS011;54691;48.262;11.586;2022-12-24T04:55:15;1.32;;;0.60;;
2884;SDS011;54691;48.262;11.586;2022-12-24T05:02:12;1.25;;;0.50;;
2884;SDS011;54691;48.262;11.586;2022-12-24T05:09:09;4.28;;;0.40;;
2884;SDS011;54691;48.262;11.586;2022-12-24T05:16:06;0.30;;;0.30;;
2884;SDS011;54691;48.262;11.586;2022-12-24T05:23:03;1.15;;;0.60;;
2884;SDS011;54691;48.262;11.586;2022-12-24T05:26:52;0.20;;;0.20;;
2884;SDS011;54691;48.262;11.586;2022-12-24T05:33:49;1.10;;;0.65;;
2884;SDS011;54691;48.262;11.586;2022-12-24T05:40:46;4.55;;;0.40;;
2884;SDS011;54691;48.262;11.586;2022-12-24T05:47:43;4.17;;;0.55;;
2884;SDS011;54691;48.262;11.586;2022-12-24T05:54:40;4.00;;;0.75;;
2884;SDS011;54691;48.262;11.586;2022-12-24T06:01:37;3.35;;;0.50;;
2884;SDS011;54691;48.262;11.586;2022-12-24T06:08:41;1.17;;;0.82;;
2884;SDS011;54691;48.262;11.586;2022-12-24T06:12:23;4.15;;;0.42;;
2884;SDS011;54691;48.262;11.586;2022-12-24T06:19:20;2.10;;;0.57;;
2884;SDS011;54691;48.262;11.586;2022-12-24T06:26:19;2.70;;;0.90;;
2884;SDS011;54691;48.262;11.586;2022-12-24T06:33:18;3.80;;;1.07;;
2884;SDS011;54691;48.262;11.586;2022-12-24T06:40:18;1.10;;;0.50;;
2884;SDS011;54691;48.262;11.586;2022-12-24T06:47:15;1.20;;;0.40;;
2884;SDS011;54691;48.262;11.586;2022-12-24T06:54:12;2.52;;;0.37;;
2884;SDS011;54691;48.262;11.586;2022-12-24T07:01:10;3.12;;;0.82;;
2884;SDS011;54691;48.262;11.586;2022-12-24T07:08:09;6.45;;;1.57;;
2884;SDS011;54691;48.262;11.586;2022-12-24T07:15:06;2.85;;;0.57;;
2884;SDS011;54691;48.262;11.586;2022-12-24T07:22:06;2.98;;;0.45;;
2884;SDS011;54691;48.262;11.586;2022-12-24T07:29:05;2.02;;;0.28;;
2884;SDS011;54691;48.262;11.586;2022-12-24T07:36:06;1.77;;;0.40;;
2884;SDS011;54691;48.262;11.586;2022-12-24T07:43:03;2.10;;;0.50;;
2884;SDS011;54691;48.262;11.586;2022-12-24T07:50:01;5.62;;;0.40;;
2884;SDS011;54691;48.262;11.586;2022-12-24T07:56:58;2.50;;;0.23;;
2884;SDS011;54691;48.262;11.586;2022-12-24T08:03:55;6.72;;;0.53;;
2884;SDS011;54691;48.262;11.586;2022-12-24T08:10:58;3.52;;;0.50;;
2884;SDS011;54691;48.262;11.586;2022-12-24T08:17:53;1.60;;;0.40;;
2884;SDS011;54691;48.262;11.586;2022-12-24T08:24:50;2.42;;;0.30;;
2884;SDS011;54691;48.262;11.586;2022-12-24T08:31:49;0.10;;;0.10;;
2884;SDS011;54691;48.262;11.586;2022-12-24T08:38:46;2.77;;;0.55;;
2884;SDS011;54691;48.262;11.586;2022-12-24T08:45:44;0.95;;;0.40;;
2884;SDS011;54691;48.262;11.586;2022-12-24T08:52:44;3.25;;;1.70;;
2884;SDS011;54691;48.262;11.586;2022-12-24T08:59:41;4.72;;;0.40;;
2884;SDS011;54691;48.262;11.586;2022-12-24T09:06:38;0.20;;;0.20;;
2884;SDS011;54691;48.262;11.586;2022-12-24T09:13:35;2.12;;;0.50;;
2884;SDS011;54691;48.262;11.586;2022-12-24T09:20:32;2.72;;;0.40;;
2884;SDS011;54691;48.262;11.586;2022-12-24T09:27:33;0.70;;;0.40;;
2884;SDS011;54691;48.262;11.586;2022-12-24T09:34:33;2.58;;;0.50;;
2884;SDS011;54691;48.262;11.586;2022-12-24T09:48:47;2.80;;;0.50;;
2884;SDS011;54691;48.262;11.586;2022-12-24T09:55:46;2.02;;;0.30;;
2884;SDS011;54691;48.262;11.586;2022-12-24T10:02:43;2.37;;;0.60;;
2884;SDS011;54691;48.262;11.586;2022-12-24T10:24:02;2.05;;;0.25;;
2884;SDS011;54691;48.262;11.586;2022-12-24T10:30:58;0.60;;;0.30;;
2884;SDS011;54691;48.262;11.586;2022-12-24T10:37:56;1.62;;;0.40;;
2884;SDS011;54691;48.262;11.586;2022-12-24T10:44:54;3.58;;;0.40;;
2884;SDS011;54691;48.262;11.586;2022-12-24T10:51:53;1.20;;;0.60;;
2884;SDS011;54691;48.262;11.586;2022-12-24T10:58:54;2.55;;;0.37;;
2884;SDS011;54691;48.262;11.586;2022-12-24T11:02:25;2.10;;;0.42;;
2884;SDS011;54691;48.262;11.586;2022-12-24T11:09:29;2.50;;;0.42;;
2884;SDS011;54691;48.262;11.586;2022-12-24T11:16:28;5.78;;;0.42;;
2884;SDS011;54691;48.262;11.586;2022-12-24T11:23:26;1.40;;;0.30;;
2884;SDS011;54691;48.262;11.586;2022-12-24T11:41:10;5.95;;;0.35;;
2884;SDS011;54691;48.262;11.586;2022-12-24T11:44:45;2.65;;;0.70;;
2884;SDS011;54691;48.262;11.586;2022-12-24T11:51:41;0.57;;;0.30;;
2884;SDS011;54691;48.262;11.586;2022-12-24T11:58:48;3.17;;;0.40;;
2884;SDS011;54691;48.262;11.586;2022-12-24T12:02:24;2.25;;;0.47;;
2884;SDS011;54691;48.262;11.586;2022-12-24T12:12:55;7.92;;;0.70;;
2884;SDS011;54691;48.262;11.586;2022-12-24T12:19:57;1.02;;;0.40;;
2884;SDS011;54691;48.262;11.586;2022-12-24T12:23:33;6.80;;;1.50;;
2884;SDS011;54691;48.262;11.586;2022-12-24T12:27:16;0.80;;;0.30;;
2884;SDS011;54691;48.262;11.586;2022-12-24T12:34:11;5.37;;;0.98;;
2884;SDS011;54691;48.262;11.586;2022-12-24T12:37:40;4.45;;;0.45;;
2884;SDS011;54691;48.262;11.586;2022-12-24T12:44:48;5.58;;;0.62;;
2884;SDS011;54691;48.262;11.586;2022-12-24T12:55:30;3.15;;;1.25;;
2884;SDS011;54691;48.262;11.586;2022-12-24T12:59:11;1.05;;;0.50;;
2884;SDS011;54691;48.262;11.586;2022-12-24T13:20:20;3.10;;;0.55;;
2884;SDS011;54691;48.262;11.586;2022-12-24T13:27:28;2.08;;;0.50;;
2884;SDS011;54691;48.262;11.586;2022-12-24T13:41:51;4.72;;;0.50;;
2884;SDS011;54691;48.262;11.586;2022-12-24T13:48:48;5.87;;;0.80;;
2884;SDS011;54691;48.262;11.586;2022-12-24T13:55:49;1.55;;;0.50;;
2884;SDS011;54691;48.262;11.586;2022-12-24T14:06:27;6.50;;;0.45;;
2884;SDS011;54691;48.262;11.586;2022-12-24T14:16:59;1.55;;;0.30;;
2884;SDS011;54691;48.262;11.586;2022-12-24T14:24:01;2.33;;;0.60;;
2884;SDS011;54691;48.262;11.586;2022-12-24T14:31:16;1.05;;;0.60;;
2884;SDS011;54691;48.262;11.586;2022-12-24T14:41:50;4.28;;;1.00;;
2884;SDS011;54691;48.262;11.586;2022-12-24T14:52:24;5.28;;;1.20;;
2884;SDS011;54691;48.262;11.586;2022-12-24T14:59:19;1.77;;;1.20;;
2884;SDS011;54691;48.262;11.586;2022-12-24T15:06:16;4.33;;;1.10;;
2884;SDS011;54691;48.262;11.586;2022-12-24T15:17:00;6.63;;;1.00;;
2884;SDS011;54691;48.262;11.586;2022-12-24T15:23:56;1.35;;;0.37;;
2884;SDS011;54691;48.262;11.586;2022-12-24T15:31:14;3.35;;;0.57;;
2884;SDS011;54691;48.262;11.586;2022-12-24T15:38:01;1.22;;;0.53;;
2884;SDS011;54691;48.262;11.586;2022-12-24T15:45:02;8.53;;;0.95;;
2884;SDS011;54691;48.262;11.586;2022-12-24T15:52:11;5.35;;;0.57;;
2884;SDS011;54691;48.262;11.586;2022-12-24T15:55:46;2.65;;;0.60;;
2884;SDS011;54691;48.262;11.586;2022-12-24T16:06:14;1.82;;;0.45;;
2884;SDS011;54691;48.262;11.586;2022-12-24T16:13:24;1.15;;;0.47;;
2884;SDS011;54691;48.262;11.586;2022-12-24T16:16:52;2.15;;;0.90;;
2884;SDS011;54691;48.262;11.586;2022-12-24T16:23:55;4.92;;;2.35;;
2884;SDS011;54691;48.262;11.586;2022-12-24T16:30:52;3.62;;;0.60;;
2884;SDS011;54691;48.262;11.586;2022-12-24T16:37:53;3.65;;;0.98;;
2884;SDS011;54691;48.262;11.586;2022-12-24T16:44:56;2.70;;;0.90;;
2884;SDS011;54691;48.262;11.586;2022-12-24T16:51:50;0.95;;;0.50;;
2884;SDS011;54691;48.262;11.586;2022-12-24T16:58:47;4.45;;;0.62;;
2884;SDS011;54691;48.262;11.586;2022-12-24T17:05:43;1.12;;;0.70;;
2884;SDS011;54691;48.262;11.586;2022-12-24T17:12:41;4.12;;;0.82;;
2884;SDS011;54691;48.262;11.586;2022-12-24T17:19:38;7.72;;;2.33;;
2884;SDS011;54691;48.262;11.586;2022-12-24T17:26:35;2.80;;;1.52;;
2884;SDS011;54691;48.262;11.586;2022-12-24T17:33:32;3.25;;;1.00;;
2884;SDS011;54691;48.262;11.586;2022-12-24T17:40:29;5.15;;;1.60;;
2884;SDS011;54691;48.262;11.586;2022-12-24T17:47:26;4.12;;;1.25;;
2884;SDS011;54691;48.262;11.586;2022-12-24T17:54:23;2.72;;;1.10;;
2884;SDS011;54691;48.262;11.586;2022-12-24T18:01:21;7.17;;;0.88;;
2884;SDS011;54691;48.262;11.586;2022-12-24T18:08:18;2.67;;;0.72;;
2884;SDS011;54691;48.262;11.586;2022-12-24T18:15:19;2.15;;;0.90;;
2884;SDS011;54691;48.262;11.586;2022-12-24T18:22:16;2.02;;;1.02;;
2884;SDS011;54691;48.262;11.586;2022-12-24T18:29:13;3.85;;;1.05;;
2884;SDS011;54691;48.262;11.586;2022-12-24T18:36:10;4.17;;;0.95;;
2884;SDS011;54691;48.262;11.586;2022-12-24T18:43:07;2.17;;;1.30;;
2884;SDS011;54691;48.262;11.586;2022-12-24T18:50:05;1.30;;;0.68;;
2884;SDS011;54691;48.262;11.586;2022-12-24T18:57:02;2.22;;;0.78;;
2884;SDS011;54691;48.262;11.586;2022-12-24T19:03:59;2.50;;;1.00;;
2884;SDS011;54691;48.262;11.586;2022-12-24T19:10:56;4.50;;;1.52;;
2884;SDS011;54691;48.262;11.586;2022-12-24T19:17:54;5.03;;;0.90;;
2884;SDS011;54691;48.262;11.586;2022-12-24T19:24:51;4.45;;;1.02;;
2884;SDS011;54691;48.262;11.586;2022-12-24T19:31:48;1.98;;;0.98;;
2884;SDS011;54691;48.262;11.586;2022-12-24T19:38:45;1.17;;;0.70;;
2884;SDS011;54691;48.262;11.586;2022-12-24T19:45:42;5.03;;;1.47;;
2884;SDS011;54691;48.262;11.586;2022-12-24T19:52:39;1.45;;;0.88;;
2884;SDS011;54691;48.262;11.586;2022-12-24T20:03:14;1.70;;;0.80;;
2884;SDS011;54691;48.262;11.586;2022-12-24T20:10:11;3.62;;;0.95;;
2884;SDS011;54691;48.262;11.586;2022-12-24T20:17:08;2.52;;;1.05;;
2884;SDS011;54691;48.262;11.586;2022-12-24T20:24:11;4.97;;;1.50;;
2884;SDS011;54691;48.262;11.586;2022-12-24T20:41:39;5.75;;;1.32;;
2884;SDS011;54691;48.262;11.586;2022-12-24T20:48:36;3.52;;;1.40;;
2884;SDS011;54691;48.262;11.586;2022-12-24T20:55:34;4.10;;;1.77;;
2884;SDS011;54691;48.262;11.586;2022-12-24T21:02:31;4.67;;;1.82;;
2884;SDS011;54691;48.262;11.586;2022-12-24T21:09:28;5.72;;;1.95;;
2884;SDS011;54691;48.262;11.586;2022-12-24T21:16:32;3.62;;;1.60;;
2884;SDS011;54691;48.262;11.586;2022-12-24T21:20:25;3.98;;;1.80;;
2884;SDS011;54691;48.262;11.586;2022-12-24T21:24:02;3.27;;;1.70;;
2884;SDS011;54691;48.262;11.586;2022-12-24T21:27:50;3.35;;;1.52;;
2884;SDS011;54691;48.262;11.586;2022-12-24T21:31:32;3.05;;;1.70;;
2884;SDS011;54691;48.262;11.586;2022-12-24T21:38:26;4.65;;;1.72;;
2884;SDS011;54691;48.262;11.586;2022-12-24T21:49:10;3.80;;;1.40;;
2884;SDS011;54691;48.262;11.586;2022-12-24T21:53:05;4.00;;;1.70;;
2884;SDS011;54691;48.262;11.586;2022-12-24T21:56:52;4.07;;;2.87;;
2884;SDS011;54691;48.262;11.586;2022-12-24T22:00:39;6.58;;;2.65;;
2884;SDS011;54691;48.262;11.586;2022-12-24T22:07:36;3.87;;;1.50;;
2884;SDS011;54691;48.262;11.586;2022-12-24T22:11:20;3.60;;;1.50;;
2884;SDS011;54691;48.262;11.586;2022-12-24T22:15:07;4.22;;;1.60;;
2884;SDS011;54691;48.262;11.586;2022-12-24T22:22:04;7.53;;;2.62;;
2884;SDS011;54691;48.262;11.586;2022-12-24T22:29:07;3.58;;;1.85;;
2884;SDS011;54691;48.262;11.586;2022-12-24T22:36:05;4.85;;;2.17;;
2884;SDS011;54691;48.262;11.586;2022-12-24T22:42:59;3.83;;;1.57;;
2884;SDS011;54691;48.262;11.586;2022-12-24T22:49:56;3.55;;;1.90;;
2884;SDS011;54691;48.262;11.586;2022-12-24T22:56:53;4.15;;;2.20;;
2884;SDS011;54691;48.262;11.586;2022-12-24T23:03:50;5.33;;;2.05;;
2884;SDS011;54691;48.262;11.586;2022-12-24T23:10:47;4.78;;;2.40;;
2884;SDS011;54691;48.262;11.586;2022-12-24T23:18:02;5.50;;;2.67;;
2884;SDS011;54691;48.262;11.586;2022-12-24T23:24:59;5.97;;;2.30;;
2884;SDS011;54691;48.262;11.586;2022-12-24T23:31:56;7.72;;;3.58;;
2884;SDS011;54691;48.262;11.586;2022-12-24T23:38:54;6.10;;;2.70;;
2884;SDS011;54691;48.262;11.586;2022-12-24T23:45:52;4.65;;;2.50;;
2884;SDS011;54691;48.262;11.586;2022-12-24T23:52:49;8.53;;;2.87;;
2884;SDS011;54691;48.262;11.586;2022-12-24T23:59:49;5.75;;;1.90;;
